Kezdőlap
METAR-TAF:

METAR-TAF

Repülőterek :

Somerset Airport

Somerville, New Jersey, Amerikai Egyesült Államok

földrajzi szélesség: 40-37-26N, földrajzi hosszúság: 074-40-10W, magasság: 32 m

Jelenlegi meteorológiai megfigyelések

A jelentés 20 perccel ezelõtt készült, 16:53 UTC
Nyugat-északnyugati szél 8 kt, nyugati és északnyugati között változik
Hőmérséklet 11°C
Páratartalom 20%
Légköri nyomás 1022 hPa
Látótávolság: 16.1 km
Derült ég

METAR: KSMQ 231653Z AUTO 30008KT 260V320 10SM CLR 11/M11 A3018 RMK AO2 SLP220 T01111106

Idő: 12:13 (17:13 UTC)


TAF: hiányzik

Meteorológiai megfigyelések és előrejelzések több, mint 4000 repülőtéren (METAR és TAF jelentéseket).

A térképen piros és sárga pontok jelzik az elérhető meteorológiai állomásokat.

Mozgassa az egeret a pont fölött, hogy megjelenjen az állomás neve.

Azután kattintson az időjárási megfigyelések és előrejelzések megtekintéséhez.

A térkép megváltoztatása: kattintson a fekete keresztel jelölt zöld gombra ráközelítéshez, a vonallal jelölt zöld gombra távolításhoz, vagy a zöld nyilakra a szomszédos térképek eléréséhez.


METAR-TAF: